Time;durP1;ratioP1;P1;durP2;ratioP2;P2;SDS_P1;SDS_P2;PMS_P1;PMS_P2;Temp;Humidity;BMP_temperature;BMP_pressure;BME280_temperature;BME280_humidity;BME280_pressure;Samples;Min_cycle;Max_cycle;Signal;HPM_P1;HPM_P2
2021/01/13 00:00:00;;;;;;;14.30;8.80;;;2.30;99.90;;;;;;4880968;29;20197;-77
2021/01/13 00:02:33;;;;;;;17.52;8.38;;;2.30;99.90;;;;;;4861349;29;20236;-77
2021/01/13 00:05:07;;;;;;;14.40;6.95;;;2.30;99.90;;;;;;4892078;29;20196;-75
2021/01/13 00:07:39;;;;;;;14.57;6.78;;;2.30;99.90;;;;;;4895266;29;20251;-77
2021/01/13 00:10:13;;;;;;;16.63;7.30;;;2.30;99.90;;;;;;4894292;29;20570;-77
2021/01/13 00:12:46;;;;;;;16.73;7.60;;;2.30;99.90;;;;;;4895332;29;20227;-76
2021/01/13 00:15:19;;;;;;;12.75;7.93;;;2.40;99.90;;;;;;4879568;29;20677;-76
2021/01/13 00:17:52;;;;;;;18.90;8.30;;;2.40;99.90;;;;;;4897721;29;20259;-77
2021/01/13 00:20:24;;;;;;;18.85;9.07;;;2.30;99.90;;;;;;4890317;29;20196;-78
2021/01/13 00:22:57;;;;;;;24.95;8.93;;;2.40;99.90;;;;;;4897289;29;20208;-76
2021/01/13 00:25:29;;;;;;;17.60;9.13;;;2.40;99.90;;;;;;4886130;29;20203;-77
2021/01/13 00:27:56;;;;;;;20.95;8.75;;;2.40;99.90;;;;;;4880353;29;20208;-77
2021/01/13 00:30:29;;;;;;;12.38;8.00;;;2.40;99.90;;;;;;4888043;29;20208;-75
2021/01/13 00:33:04;;;;;;;21.45;10.38;;;2.40;99.90;;;;;;4894809;29;20576;-76
2021/01/13 00:35:36;;;;;;;17.42;8.70;;;2.40;99.90;;;;;;4889068;29;20567;-76
2021/01/13 00:38:09;;;;;;;22.45;9.20;;;2.40;99.90;;;;;;4896351;29;20296;-75
2021/01/13 00:40:42;;;;;;;21.50;9.60;;;2.50;99.90;;;;;;4896925;29;20550;-76
2021/01/13 00:43:14;;;;;;;17.98;8.35;;;2.50;99.90;;;;;;4896323;29;20713;-77
2021/01/13 00:45:47;;;;;;;14.60;7.57;;;2.50;99.90;;;;;;4890187;29;20196;-78
2021/01/13 00:48:20;;;;;;;23.60;8.65;;;2.50;99.90;;;;;;4887164;29;20290;-78
2021/01/13 00:50:53;;;;;;;18.77;6.93;;;2.40;99.90;;;;;;4910478;29;20291;-77
2021/01/13 00:53:25;;;;;;;23.23;6.75;;;2.50;99.90;;;;;;4905190;29;20695;-77
2021/01/13 00:55:58;;;;;;;13.68;6.85;;;2.50;99.90;;;;;;4913823;29;20192;-78
2021/01/13 00:58:30;;;;;;;12.25;7.43;;;2.50;99.90;;;;;;4913505;29;20207;-76
2021/01/13 01:01:04;;;;;;;13.00;7.93;;;2.50;99.90;;;;;;4915207;29;20230;-78
2021/01/13 01:03:36;;;;;;;14.50;7.20;;;2.50;99.90;;;;;;4907917;29;20569;-77
2021/01/13 01:06:12;;;;;;;16.27;8.40;;;2.50;99.90;;;;;;4915132;29;20672;-77
2021/01/13 01:08:44;;;;;;;15.70;8.48;;;2.50;99.90;;;;;;4910646;29;20210;-77
2021/01/13 01:11:20;;;;;;;14.82;7.70;;;2.50;99.90;;;;;;4901601;29;20702;-77
2021/01/13 01:13:53;;;;;;;16.55;8.02;;;2.50;99.90;;;;;;4880539;29;20718;-75
2021/01/13 01:16:30;;;;;;;19.30;8.43;;;2.50;99.90;;;;;;4905948;29;20615;-76
2021/01/13 01:19:04;;;;;;;13.63;6.95;;;2.40;99.90;;;;;;4896623;29;20214;-77
2021/01/13 01:21:39;;;;;;;13.45;9.00;;;2.50;99.90;;;;;;4913312;29;20263;-77
2021/01/13 01:24:12;;;;;;;17.85;8.13;;;2.50;99.90;;;;;;4915216;29;20548;-78
2021/01/13 01:26:46;;;;;;;21.95;10.85;;;2.40;99.90;;;;;;4914108;29;20249;-77
2021/01/13 01:29:18;;;;;;;24.80;9.05;;;2.40;99.90;;;;;;4914928;29;20188;-78
2021/01/13 01:31:52;;;;;;;23.50;9.95;;;2.40;99.90;;;;;;4910363;29;20220;-77
2021/01/13 01:34:29;;;;;;;16.80;8.75;;;2.30;99.90;;;;;;4909874;29;20192;-79
2021/01/13 01:37:02;;;;;;;23.25;9.00;;;2.30;99.90;;;;;;4908490;29;20198;-77
2021/01/13 01:39:34;;;;;;;21.63;9.02;;;2.30;99.90;;;;;;4912644;29;20236;-77
2021/01/13 01:42:10;;;;;;;15.05;8.07;;;2.30;99.90;;;;;;4912629;29;20701;-77
2021/01/13 01:44:37;;;;;;;18.83;9.13;;;2.30;99.90;;;;;;4913988;29;20689;-77
2021/01/13 01:47:11;;;;;;;19.35;10.20;;;2.20;99.90;;;;;;4914281;29;20188;-76
2021/01/13 01:49:46;;;;;;;18.30;8.82;;;2.30;99.90;;;;;;4898896;29;20238;-75
2021/01/13 01:52:18;;;;;;;13.77;7.57;;;2.20;99.90;;;;;;4878620;29;20208;-76
2021/01/13 01:54:55;;;;;;;21.25;8.70;;;2.20;99.90;;;;;;4882693;29;20606;-78
2021/01/13 01:57:32;;;;;;;16.98;7.75;;;2.20;99.90;;;;;;4887345;29;20197;-75
2021/01/13 02:00:15;;;;;;;23.40;9.20;;;2.30;99.90;;;;;;4888718;29;20196;-75
2021/01/13 02:02:57;;;;;;;19.63;7.57;;;2.30;99.90;;;;;;4893464;29;20302;-76
2021/01/13 02:05:31;;;;;;;15.90;7.50;;;2.30;99.90;;;;;;4895526;29;20210;-77
2021/01/13 02:08:04;;;;;;;11.00;7.53;;;2.20;99.90;;;;;;4895080;29;20281;-76
2021/01/13 02:10:36;;;;;;;14.02;7.45;;;2.30;99.90;;;;;;4894940;29;20281;-76
2021/01/13 02:13:09;;;;;;;17.80;8.18;;;2.30;99.90;;;;;;4895058;29;20569;-76
2021/01/13 02:15:41;;;;;;;17.65;7.70;;;2.30;99.90;;;;;;4889618;29;20211;-77
2021/01/13 02:18:11;;;;;;;21.88;7.55;;;2.30;99.90;;;;;;4886030;29;20200;-75
2021/01/13 02:20:52;;;;;;;21.83;9.65;;;2.20;99.90;;;;;;4892214;29;20211;-75
2021/01/13 02:23:31;;;;;;;12.60;6.95;;;2.30;99.90;;;;;;4877639;29;20211;-79
2021/01/13 02:26:34;;;;;;;14.70;7.60;;;2.40;99.90;;;;;;4877365;29;20192;-76
2021/01/13 02:29:15;;;;;;;14.95;6.85;;;2.40;99.90;;;;;;4889761;29;20207;-76
2021/01/13 02:32:05;;;;;;;17.05;8.50;;;2.30;99.90;;;;;;4895323;29;20215;-76
2021/01/13 02:34:45;;;;;;;18.73;7.15;;;2.30;99.90;;;;;;4882998;29;20200;-76
2021/01/13 02:37:34;;;;;;;12.35;5.65;;;2.30;99.90;;;;;;4865971;29;20193;-75
2021/01/13 02:40:09;;;;;;;11.93;6.50;;;2.40;99.90;;;;;;4891702;29;20296;-74
2021/01/13 02:43:01;;;;;;;12.25;6.85;;;2.40;99.90;;;;;;4879583;29;20232;-75
2021/01/13 02:45:39;;;;;;;10.10;6.28;;;2.30;99.90;;;;;;4882434;29;20529;-77
2021/01/13 02:48:19;;;;;;;14.85;6.32;;;2.40;99.90;;;;;;4899878;29;20195;-75
2021/01/13 02:50:55;;;;;;;13.15;7.80;;;2.20;99.90;;;;;;4916072;29;20210;-76
2021/01/13 02:53:55;;;;;;;12.38;6.85;;;2.20;99.90;;;;;;4917729;29;20559;-75
2021/01/13 02:56:41;;;;;;;16.20;7.30;;;2.30;99.90;;;;;;4905137;29;20259;-75
2021/01/13 02:59:14;;;;;;;13.35;7.40;;;2.20;99.90;;;;;;4911923;29;20557;-75
2021/01/13 03:01:49;;;;;;;14.55;7.72;;;2.10;99.90;;;;;;4911046;29;20243;-76
2021/01/13 03:04:22;;;;;;;18.52;8.15;;;2.20;99.90;;;;;;4913798;29;20198;-77
2021/01/13 03:06:57;;;;;;;23.35;7.50;;;2.20;99.90;;;;;;4915461;29;20239;-77
2021/01/13 03:09:36;;;;;;;16.65;8.32;;;2.20;99.90;;;;;;4915479;29;20561;-75
2021/01/13 03:12:18;;;;;;;14.52;7.43;;;2.10;99.90;;;;;;4892660;29;20570;-75
2021/01/13 03:14:52;;;;;;;23.85;8.23;;;2.20;99.90;;;;;;4916687;29;20204;-76
2021/01/13 03:17:48;;;;;;;15.13;7.50;;;2.10;99.90;;;;;;4917468;29;20282;-75
2021/01/13 03:20:30;;;;;;;14.68;8.10;;;2.10;99.90;;;;;;4912096;29;20188;-75
2021/01/13 03:23:07;;;;;;;14.48;7.90;;;2.00;99.90;;;;;;4913003;29;20219;-75
2021/01/13 03:25:47;;;;;;;16.15;8.50;;;2.00;99.90;;;;;;4905757;29;20580;-74
2021/01/13 03:28:23;;;;;;;17.63;8.30;;;2.10;99.90;;;;;;4899103;29;20235;-76
2021/01/13 03:30:58;;;;;;;16.00;8.73;;;2.10;99.90;;;;;;4914914;29;20195;-76
2021/01/13 03:33:55;;;;;;;14.45;7.80;;;2.10;99.90;;;;;;4915168;29;21176;-75
2021/01/13 03:36:56;;;;;;;14.18;7.97;;;2.10;99.90;;;;;;4914025;29;20262;-76
2021/01/13 03:39:34;;;;;;;18.48;9.07;;;2.10;99.90;;;;;;4898493;29;20187;-75
2021/01/13 03:42:10;;;;;;;21.42;10.95;;;2.10;99.90;;;;;;4899401;29;20228;-75
2021/01/13 03:44:44;;;;;;;14.25;7.80;;;2.00;99.90;;;;;;4913505;29;20716;-75
2021/01/13 03:47:45;;;;;;;18.00;8.98;;;2.10;99.90;;;;;;4907207;29;20195;-74
2021/01/13 03:50:20;;;;;;;15.88;8.57;;;2.10;99.90;;;;;;4908784;29;20219;-75
2021/01/13 03:52:58;;;;;;;19.92;9.18;;;2.00;99.90;;;;;;4914406;29;20340;-76
2021/01/13 03:55:33;;;;;;;24.42;9.70;;;2.10;99.90;;;;;;4897760;29;20199;-75
2021/01/13 03:58:25;;;;;;;17.77;9.02;;;2.00;99.90;;;;;;4897463;29;20588;-75
2021/01/13 04:01:16;;;;;;;23.05;10.00;;;2.00;99.90;;;;;;4901677;29;20215;-76
2021/01/13 04:03:55;;;;;;;15.13;7.78;;;2.00;99.90;;;;;;4915512;29;20286;-76
2021/01/13 04:06:28;;;;;;;16.55;8.85;;;2.00;99.90;;;;;;4894916;29;21475;-75
2021/01/13 04:09:03;;;;;;;20.45;9.85;;;2.00;99.90;;;;;;4910712;29;20196;-76
2021/01/13 04:11:36;;;;;;;14.68;9.35;;;2.10;99.90;;;;;;4913100;29;20191;-75
2021/01/13 04:14:10;;;;;;;18.23;8.65;;;2.10;99.90;;;;;;4914008;29;20247;-75
2021/01/13 04:16:44;;;;;;;15.63;9.88;;;2.10;99.90;;;;;;4913864;29;20531;-75
2021/01/13 04:19:17;;;;;;;23.30;8.50;;;2.00;99.90;;;;;;4907445;29;20208;-75
2021/01/13 04:21:51;;;;;;;14.25;8.23;;;2.10;99.90;;;;;;4909641;29;20243;-74
2021/01/13 04:24:25;;;;;;;18.35;9.00;;;2.10;99.90;;;;;;4903766;29;20202;-75
2021/01/13 04:26:58;;;;;;;17.45;9.32;;;2.10;99.90;;;;;;4913292;29;20231;-76
2021/01/13 04:29:31;;;;;;;16.20;9.15;;;2.10;99.90;;;;;;4914160;29;20562;-75
2021/01/13 04:32:04;;;;;;;16.67;8.90;;;2.10;99.90;;;;;;4913856;29;20604;-76
2021/01/13 04:34:31;;;;;;;19.13;9.57;;;2.00;99.90;;;;;;4914658;29;20653;-75
2021/01/13 04:37:05;;;;;;;15.82;9.57;;;2.00;99.90;;;;;;4915663;29;21065;-75
2021/01/13 04:39:40;;;;;;;15.23;10.20;;;2.10;99.90;;;;;;4915793;29;20198;-75
2021/01/13 04:42:15;;;;;;;15.63;8.60;;;2.00;99.90;;;;;;4908488;29;20225;-75
2021/01/13 04:45:02;;;;;;;20.77;9.85;;;2.00;99.90;;;;;;4910676;29;20231;-75
2021/01/13 04:47:50;;;;;;;26.35;9.40;;;2.00;99.90;;;;;;4911695;29;20196;-74
2021/01/13 04:50:20;;;;;;;19.63;10.65;;;2.10;99.90;;;;;;4907740;29;20187;-75
2021/01/13 04:52:59;;;;;;;18.90;11.30;;;2.00;99.90;;;;;;4896937;29;20216;-74
2021/01/13 04:55:44;;;;;;;20.13;11.02;;;2.00;99.90;;;;;;4913543;29;20200;-75
2021/01/13 04:58:40;;;;;;;17.85;9.98;;;2.00;99.90;;;;;;4897569;29;20206;-75
2021/01/13 05:01:42;;;;;;;22.15;10.77;;;1.90;99.90;;;;;;4900736;29;20200;-74
2021/01/13 05:04:34;;;;;;;23.75;12.55;;;2.00;99.90;;;;;;4908554;29;20191;-76
2021/01/13 05:07:13;;;;;;;18.02;10.73;;;2.00;99.90;;;;;;4909655;29;21543;-75
2021/01/13 05:09:51;;;;;;;21.23;10.35;;;2.00;99.90;;;;;;4911100;29;20673;-76
2021/01/13 05:12:27;;;;;;;21.33;11.40;;;2.10;99.90;;;;;;4907076;29;20270;-75
2021/01/13 05:15:00;;;;;;;25.40;12.55;;;2.10;99.90;;;;;;4913104;29;20223;-75
2021/01/13 05:17:34;;;;;;;21.17;11.85;;;2.00;99.90;;;;;;4913289;29;20199;-75
2021/01/13 05:20:22;;;;;;;22.67;11.90;;;2.10;99.90;;;;;;4914103;29;20246;-75
2021/01/13 05:22:56;;;;;;;25.27;11.88;;;2.10;99.90;;;;;;4914842;29;20277;-76
2021/01/13 05:25:37;;;;;;;18.52;11.50;;;2.20;99.90;;;;;;4909095;29;20207;-75
2021/01/13 05:28:14;;;;;;;20.58;12.10;;;2.20;99.90;;;;;;4912596;29;20251;-74
2021/01/13 05:30:51;;;;;;;18.10;10.48;;;2.30;99.90;;;;;;4909541;29;20202;-76
2021/01/13 05:33:25;;;;;;;20.65;12.10;;;2.30;99.90;;;;;;4912364;29;20517;-75
2021/01/13 05:35:59;;;;;;;24.55;10.80;;;2.30;99.90;;;;;;4912648;29;20242;-75
2021/01/13 05:38:55;;;;;;;15.57;10.35;;;2.30;99.90;;;;;;4906496;29;20201;-75
2021/01/13 05:41:28;;;;;;;21.45;11.38;;;2.40;99.90;;;;;;4889572;29;20224;-75
2021/01/13 05:44:03;;;;;;;21.52;11.40;;;2.40;99.90;;;;;;4914680;29;20194;-75
2021/01/13 05:46:43;;;;;;;18.48;10.70;;;2.30;99.90;;;;;;4913948;29;20195;-75
2021/01/13 05:49:21;;;;;;;18.08;12.07;;;2.30;99.90;;;;;;4897473;29;20250;-76
2021/01/13 05:51:54;;;;;;;22.85;10.63;;;2.40;99.90;;;;;;4904023;29;20225;-75
2021/01/13 05:54:32;;;;;;;23.30;12.23;;;2.40;99.90;;;;;;4908915;29;20196;-74
2021/01/13 05:57:06;;;;;;;19.38;11.48;;;2.50;99.90;;;;;;4912342;29;20282;-75
2021/01/13 05:59:34;;;;;;;16.50;10.00;;;2.50;99.90;;;;;;4912382;29;21887;-76
2021/01/13 06:02:11;;;;;;;18.00;11.20;;;2.50;99.90;;;;;;4895709;29;20230;-75
2021/01/13 06:04:48;;;;;;;18.48;10.30;;;2.50;99.90;;;;;;4914012;29;20243;-75
2021/01/13 06:07:23;;;;;;;26.80;11.80;;;2.50;99.90;;;;;;4914522;29;20293;-73
2021/01/13 06:09:58;;;;;;;16.17;10.10;;;2.50;99.90;;;;;;4906643;29;20191;-74
2021/01/13 06:12:26;;;;;;;16.35;10.40;;;2.50;99.90;;;;;;4896387;29;20215;-75
2021/01/13 06:15:01;;;;;;;21.75;9.85;;;2.50;99.90;;;;;;4908496;29;20192;-75
2021/01/13 06:17:34;;;;;;;18.60;9.85;;;2.50;99.90;;;;;;4911221;29;20196;-73
2021/01/13 06:20:08;;;;;;;18.10;10.23;;;2.50;99.90;;;;;;4905151;29;20612;-76
2021/01/13 06:22:44;;;;;;;19.92;10.48;;;2.50;99.90;;;;;;4912466;29;20226;-75
2021/01/13 06:25:20;;;;;;;16.45;9.60;;;2.60;99.90;;;;;;4912393;29;20721;-75
2021/01/13 06:28:06;;;;;;;14.68;9.32;;;2.60;99.90;;;;;;4914196;29;20200;-75
2021/01/13 06:30:39;;;;;;;20.00;9.65;;;2.60;99.90;;;;;;4899793;29;20203;-75
2021/01/13 06:33:22;;;;;;;12.45;8.32;;;2.50;99.90;;;;;;4914272;29;20219;-75
2021/01/13 06:36:07;;;;;;;16.23;8.50;;;2.60;99.90;;;;;;4908931;29;20196;-75
2021/01/13 06:38:43;;;;;;;13.35;8.00;;;2.60;99.90;;;;;;4892381;29;20192;-76
2021/01/13 06:41:16;;;;;;;12.18;8.10;;;2.50;99.90;;;;;;4912085;29;20200;-74
2021/01/13 06:43:58;;;;;;;14.63;8.27;;;2.50;99.90;;;;;;4912576;29;20198;-73
2021/01/13 06:46:33;;;;;;;15.88;8.18;;;2.60;99.90;;;;;;4897315;29;20214;-75
2021/01/13 06:49:14;;;;;;;12.32;7.50;;;2.70;99.90;;;;;;4912845;29;20225;-75
2021/01/13 06:51:48;;;;;;;17.38;8.10;;;2.60;99.90;;;;;;4897210;29;20218;-79
2021/01/13 06:54:16;;;;;;;14.13;8.02;;;2.70;99.90;;;;;;4897022;29;20188;-75
2021/01/13 06:56:49;;;;;;;16.60;8.57;;;2.60;99.90;;;;;;4913295;29;20208;-75
2021/01/13 06:59:23;;;;;;;14.00;8.90;;;2.60;99.90;;;;;;4902978;29;20351;-76
2021/01/13 07:01:58;;;;;;;13.45;9.70;;;2.60;99.90;;;;;;4884386;29;20254;-76
2021/01/13 07:04:44;;;;;;;18.65;11.38;;;2.70;99.90;;;;;;4894602;29;20195;-75
2021/01/13 07:07:16;;;;;;;15.10;9.95;;;2.70;99.90;;;;;;4911572;29;20191;-76
2021/01/13 07:09:50;;;;;;;16.85;10.27;;;2.60;99.90;;;;;;4911673;29;20236;-77
2021/01/13 07:12:26;;;;;;;16.48;9.13;;;2.50;99.90;;;;;;4908774;29;20216;-75
2021/01/13 07:14:59;;;;;;;13.23;8.32;;;2.60;99.90;;;;;;4883226;29;20207;-75
2021/01/13 07:17:34;;;;;;;10.55;8.45;;;2.70;99.90;;;;;;4904350;29;20245;-75
2021/01/13 07:20:08;;;;;;;15.63;8.55;;;2.50;99.90;;;;;;4912220;29;20196;-75
2021/01/13 07:22:41;;;;;;;15.27;9.07;;;2.50;99.90;;;;;;4915051;29;20276;-83
2021/01/13 07:25:14;;;;;;;15.98;8.95;;;2.60;99.90;;;;;;4916327;29;20196;-84
2021/01/13 07:27:48;;;;;;;15.68;9.38;;;2.50;99.90;;;;;;4916576;29;20192;-80
2021/01/13 07:30:25;;;;;;;11.75;8.30;;;2.50;99.90;;;;;;4893705;29;20198;-80
2021/01/13 07:33:10;;;;;;;13.10;9.32;;;2.40;99.90;;;;;;4915446;29;20306;-78
2021/01/13 07:35:45;;;;;;;28.33;8.77;;;2.40;99.90;;;;;;4893808;29;20224;-77
2021/01/13 07:38:21;;;;;;;15.82;9.85;;;2.40;99.90;;;;;;4896689;29;20200;-78
2021/01/13 07:40:58;;;;;;;18.88;10.52;;;2.40;99.90;;;;;;4882764;29;20210;-75
2021/01/13 07:43:55;;;;;;;22.67;11.15;;;2.40;99.90;;;;;;4908604;29;20227;-75
2021/01/13 07:46:29;;;;;;;18.50;12.20;;;2.40;99.90;;;;;;4895972;29;20214;-76
2021/01/13 07:49:15;;;;;;;11.88;10.23;;;2.40;99.90;;;;;;4899353;29;20225;-78
2021/01/13 07:51:51;;;;;;;11.98;9.10;;;2.30;99.90;;;;;;4898170;29;20220;-74
2021/01/13 07:54:32;;;;;;;15.80;9.75;;;2.40;99.90;;;;;;4911260;29;20199;-75
2021/01/13 07:57:07;;;;;;;10.63;8.20;;;2.40;99.90;;;;;;4892685;29;20210;-75
2021/01/13 07:59:39;;;;;;;13.23;8.20;;;2.40;99.90;;;;;;4893853;29;20535;-75
2021/01/13 08:02:35;;;;;;;15.93;8.02;;;2.30;99.90;;;;;;4896069;29;20231;-77
2021/01/13 08:05:47;;;;;;;12.80;9.15;;;2.40;99.90;;;;;;4898195;29;20192;-75
2021/01/13 08:08:24;;;;;;;11.85;9.73;;;2.30;99.90;;;;;;4911030;29;20618;-76
2021/01/13 08:11:00;;;;;;;13.50;7.75;;;2.40;99.90;;;;;;4893321;29;20203;-75
2021/01/13 08:13:39;;;;;;;12.32;7.90;;;2.40;99.90;;;;;;4904371;29;20230;-74
2021/01/13 08:16:45;;;;;;;19.88;7.82;;;2.40;99.90;;;;;;4895905;29;20645;-75
2021/01/13 08:19:58;;;;;;;14.18;7.35;;;2.50;99.90;;;;;;4911796;29;20195;-79
2021/01/13 08:22:38;;;;;;;11.15;6.75;;;2.40;99.90;;;;;;4897361;29;20610;-76
2021/01/13 08:25:18;;;;;;;12.77;7.75;;;2.40;99.90;;;;;;4905374;29;20193;-76
2021/01/13 08:27:56;;;;;;;13.20;7.63;;;2.50;99.90;;;;;;4906304;29;20633;-75
2021/01/13 08:30:40;;;;;;;20.77;7.93;;;2.50;99.90;;;;;;4893123;29;20267;-75
2021/01/13 08:33:21;;;;;;;18.63;8.30;;;2.50;99.90;;;;;;4894798;29;20226;-75
2021/01/13 08:35:49;;;;;;;13.93;7.85;;;2.50;99.90;;;;;;4889076;29;20736;-76
2021/01/13 08:38:26;;;;;;;12.60;8.73;;;2.50;99.90;;;;;;4905167;29;20223;-77
2021/01/13 08:40:54;;;;;;;14.85;8.40;;;2.50;99.90;;;;;;4893635;29;20199;-76
2021/01/13 08:43:29;;;;;;;15.57;7.63;;;2.60;99.90;;;;;;4895595;29;20253;-75
2021/01/13 08:46:02;;;;;;;12.80;7.85;;;2.50;99.90;;;;;;4911784;29;20202;-76
2021/01/13 08:48:39;;;;;;;13.07;7.18;;;2.60;99.90;;;;;;4911099;29;20267;-76
2021/01/13 08:51:14;;;;;;;9.45;6.47;;;2.70;99.90;;;;;;4896018;29;20565;-75
2021/01/13 08:53:48;;;;;;;16.00;7.15;;;2.50;99.90;;;;;;4911836;29;20584;-75
2021/01/13 08:56:21;;;;;;;21.33;8.40;;;2.60;99.90;;;;;;4906072;29;20197;-76
2021/01/13 08:58:55;;;;;;;18.75;7.88;;;2.60;99.90;;;;;;4910644;29;20189;-74
2021/01/13 09:01:43;;;;;;;17.08;8.23;;;2.60;99.90;;;;;;4907857;29;20192;-74
2021/01/13 09:04:24;;;;;;;16.83;7.60;;;2.70;99.90;;;;;;4910384;29;20206;-76
2021/01/13 09:07:02;;;;;;;15.88;7.00;;;2.70;99.90;;;;;;4912086;29;20705;-77
2021/01/13 09:09:41;;;;;;;14.95;7.68;;;2.70;99.90;;;;;;4911540;29;20198;-76
2021/01/13 09:12:30;;;;;;;11.88;6.22;;;2.70;99.90;;;;;;4910894;29;20225;-77
2021/01/13 09:15:18;;;;;;;15.02;7.60;;;2.70;99.90;;;;;;4893696;29;20226;-75
2021/01/13 09:17:53;;;;;;;12.60;7.05;;;2.80;99.90;;;;;;4899149;29;20207;-75
2021/01/13 09:20:28;;;;;;;14.48;7.75;;;2.80;99.90;;;;;;4897584;29;20776;-74
2021/01/13 09:23:02;;;;;;;21.40;7.90;;;2.80;99.90;;;;;;4893733;29;20290;-76
2021/01/13 09:25:31;;;;;;;18.02;7.00;;;2.80;99.90;;;;;;4908192;29;21285;-75
2021/01/13 09:28:15;;;;;;;17.00;8.10;;;2.80;99.90;;;;;;4893977;29;20200;-75
2021/01/13 09:30:48;;;;;;;14.45;7.50;;;2.90;99.90;;;;;;4891293;29;20248;-76
2021/01/13 09:33:21;;;;;;;13.30;6.85;;;2.90;99.90;;;;;;4911273;29;20263;-75
2021/01/13 09:36:00;;;;;;;18.15;9.35;;;2.90;99.90;;;;;;4912150;29;20542;-75
2021/01/13 09:38:36;;;;;;;20.65;7.28;;;3.00;99.90;;;;;;4896240;29;20255;-76
2021/01/13 09:41:21;;;;;;;16.88;6.90;;;3.00;99.90;;;;;;4908991;29;20192;-75
2021/01/13 09:44:09;;;;;;;14.40;7.82;;;3.10;99.90;;;;;;4912806;29;20291;-75
2021/01/13 09:46:42;;;;;;;21.30;8.23;;;3.00;99.90;;;;;;4886841;29;20318;-76
2021/01/13 09:49:14;;;;;;;15.07;8.45;;;3.10;99.90;;;;;;4889976;29;20220;-75
2021/01/13 09:51:47;;;;;;;20.90;8.77;;;3.10;99.90;;;;;;4910797;29;20650;-75
2021/01/13 09:54:23;;;;;;;16.10;8.90;;;3.20;99.90;;;;;;4910763;29;20669;-75
2021/01/13 09:56:56;;;;;;;15.32;8.00;;;3.20;99.90;;;;;;4911032;29;20247;-75
2021/01/13 09:59:29;;;;;;;16.52;8.52;;;3.30;99.90;;;;;;4912146;29;20208;-74
2021/01/13 10:01:57;;;;;;;12.73;8.63;;;3.30;99.90;;;;;;4913019;29;20239;-74
2021/01/13 10:04:30;;;;;;;14.80;8.25;;;3.40;99.90;;;;;;4913355;29;20202;-74
2021/01/13 10:07:10;;;;;;;21.35;9.82;;;3.40;99.90;;;;;;4912863;29;20206;-75
2021/01/13 10:09:44;;;;;;;16.23;9.10;;;3.40;99.90;;;;;;4902710;29;20655;-75
2021/01/13 10:12:12;;;;;;;18.02;9.68;;;3.50;99.90;;;;;;4897178;29;20280;-76
2021/01/13 10:14:52;;;;;;;15.25;8.73;;;3.50;99.90;;;;;;4911505;29;20202;-75
2021/01/13 10:17:26;;;;;;;20.15;8.23;;;3.60;99.90;;;;;;4907853;29;20200;-75
2021/01/13 10:20:11;;;;;;;17.92;9.32;;;3.70;99.90;;;;;;4894526;29;20198;-76
2021/01/13 10:22:46;;;;;;;16.67;9.35;;;3.70;99.90;;;;;;4909047;29;20238;-77
2021/01/13 10:25:26;;;;;;;16.52;9.77;;;3.70;99.90;;;;;;4896152;29;20213;-76
2021/01/13 10:28:01;;;;;;;18.13;8.73;;;3.80;99.90;;;;;;4910166;29;20206;-76
2021/01/13 10:30:34;;;;;;;14.05;7.75;;;3.80;99.90;;;;;;4890102;29;20283;-76
2021/01/13 10:33:00;;;;;;;19.05;9.93;;;3.90;99.90;;;;;;4907266;29;20637;-75
2021/01/13 10:35:38;;;;;;;28.23;8.75;;;4.00;99.90;;;;;;4909381;29;20200;-76
2021/01/13 10:38:20;;;;;;;21.05;9.05;;;4.00;99.90;;;;;;4911602;29;20195;-77
2021/01/13 10:40:51;;;;;;;22.08;7.80;;;3.90;99.90;;;;;;4894919;29;20239;-75
2021/01/13 10:43:28;;;;;;;18.73;9.35;;;4.00;99.90;;;;;;4911287;29;20755;-75
2021/01/13 10:46:02;;;;;;;26.13;8.52;;;4.00;99.90;;;;;;4912942;29;20258;-76
2021/01/13 10:48:43;;;;;;;25.40;8.70;;;4.10;99.90;;;;;;4907126;29;20198;-76
2021/01/13 10:51:20;;;;;;;13.45;7.60;;;4.00;99.90;;;;;;4894238;29;20287;-76
2021/01/13 10:53:56;;;;;;;19.75;7.50;;;4.10;99.90;;;;;;4895650;29;20207;-75
2021/01/13 10:56:32;;;;;;;20.73;8.55;;;4.10;99.90;;;;;;4901570;29;20194;-76
2021/01/13 10:59:14;;;;;;;14.10;8.50;;;4.10;99.90;;;;;;4903276;29;20287;-76
2021/01/13 11:01:59;;;;;;;12.68;7.60;;;4.20;99.90;;;;;;4887205;29;20730;-77
2021/01/13 11:04:35;;;;;;;19.73;9.63;;;4.20;99.90;;;;;;4891755;29;20322;-77
2021/01/13 11:07:06;;;;;;;18.90;9.32;;;4.20;99.90;;;;;;4894943;29;20208;-76
2021/01/13 11:09:33;;;;;;;14.20;7.78;;;4.30;99.90;;;;;;4881728;29;20204;-76
2021/01/13 11:12:00;;;;;;;17.30;8.90;;;4.30;99.90;;;;;;4874750;29;20287;-76
2021/01/13 11:14:33;;;;;;;15.15;7.05;;;4.30;99.90;;;;;;4886820;29;20943;-76
2021/01/13 11:17:06;;;;;;;15.27;6.97;;;4.30;99.90;;;;;;4893272;29;20197;-75
2021/01/13 11:19:34;;;;;;;15.77;6.57;;;4.40;99.90;;;;;;4893473;29;20295;-77
2021/01/13 11:22:00;;;;;;;17.67;6.70;;;4.40;99.90;;;;;;4877695;29;20240;-77
2021/01/13 11:24:37;;;;;;;14.80;6.55;;;4.50;99.90;;;;;;4877705;29;20263;-76
2021/01/13 11:27:12;;;;;;;14.85;5.78;;;4.40;99.90;;;;;;4884633;29;20200;-77
2021/01/13 11:29:48;;;;;;;14.20;6.28;;;4.40;99.90;;;;;;4873291;29;20199;-75
2021/01/13 11:32:22;;;;;;;16.50;6.72;;;4.50;99.90;;;;;;4897268;29;20345;-77
2021/01/13 11:34:56;;;;;;;18.73;6.68;;;4.40;99.90;;;;;;4877370;29;20199;-77
2021/01/13 11:37:37;;;;;;;12.93;5.22;;;4.50;99.90;;;;;;4875716;29;20218;-75
2021/01/13 11:40:24;;;;;;;15.65;5.60;;;4.50;99.90;;;;;;4877082;29;20196;-75
2021/01/13 11:43:21;;;;;;;13.85;6.32;;;4.50;99.90;;;;;;4888006;29;20239;-76
2021/01/13 11:46:03;;;;;;;14.60;4.60;;;4.50;99.90;;;;;;4888782;29;20201;-74
2021/01/13 11:48:40;;;;;;;15.32;7.03;;;4.50;99.90;;;;;;4895187;29;20208;-77
2021/01/13 11:51:16;;;;;;;11.48;5.97;;;4.50;99.90;;;;;;4901192;29;20227;-76
2021/01/13 11:53:49;;;;;;;13.43;5.72;;;4.50;99.90;;;;;;4882168;29;20189;-76
2021/01/13 11:56:28;;;;;;;12.02;5.50;;;4.60;99.90;;;;;;4889073;29;20289;-75
2021/01/13 11:58:54;;;;;;;11.05;5.80;;;4.50;99.90;;;;;;4888653;29;20256;-76
2021/01/13 12:01:29;;;;;;;12.23;5.88;;;4.60;99.90;;;;;;4894513;29;20272;-75
2021/01/13 12:04:03;;;;;;;14.52;5.45;;;4.60;99.90;;;;;;4878110;29;20291;-80
2021/01/13 12:06:35;;;;;;;10.32;5.53;;;4.50;99.90;;;;;;4882169;29;20218;-76
2021/01/13 12:09:17;;;;;;;9.40;5.82;;;4.60;99.90;;;;;;4896154;29;20196;-78
2021/01/13 12:11:50;;;;;;;12.13;6.38;;;4.60;99.90;;;;;;4880937;29;20238;-77
2021/01/13 12:14:39;;;;;;;20.42;9.00;;;4.70;99.90;;;;;;4895244;29;20200;-77
2021/01/13 12:17:06;;;;;;;14.73;7.03;;;4.60;99.90;;;;;;4887106;29;20192;-76
2021/01/13 12:19:37;;;;;;;17.10;6.65;;;4.60;99.90;;;;;;4886743;29;20256;-76
2021/01/13 12:22:04;;;;;;;15.68;7.95;;;4.60;99.90;;;;;;4895242;29;20227;-75
2021/01/13 12:24:38;;;;;;;18.83;8.50;;;4.60;99.90;;;;;;4889639;29;20196;-73
2021/01/13 12:27:24;;;;;;;18.70;8.85;;;4.60;99.90;;;;;;4887299;29;20263;-75
2021/01/13 12:30:06;;;;;;;17.40;9.10;;;4.70;99.90;;;;;;4875704;29;20545;-75
2021/01/13 12:32:41;;;;;;;14.52;6.30;;;4.70;99.90;;;;;;4875970;29;20314;-76
2021/01/13 12:35:14;;;;;;;10.18;5.35;;;4.60;99.90;;;;;;4889902;29;20200;-75
2021/01/13 12:37:50;;;;;;;12.18;5.97;;;4.70;99.90;;;;;;4887038;29;20207;-76
2021/01/13 12:40:32;;;;;;;11.80;4.43;;;4.70;99.90;;;;;;4886133;29;20666;-75
2021/01/13 12:43:14;;;;;;;13.50;5.45;;;4.80;99.90;;;;;;4892194;29;20234;-76
2021/01/13 12:45:47;;;;;;;7.82;5.05;;;4.80;99.90;;;;;;4879253;29;20685;-75
2021/01/13 12:48:21;;;;;;;13.15;4.95;;;4.80;99.90;;;;;;4890524;29;20195;-76
2021/01/13 12:50:56;;;;;;;11.90;4.75;;;4.70;99.90;;;;;;4909392;29;20241;-77
2021/01/13 12:53:23;;;;;;;8.77;5.18;;;4.80;99.90;;;;;;4913862;29;20275;-77
2021/01/13 12:55:55;;;;;;;11.52;4.18;;;4.80;99.90;;;;;;4914310;29;20554;-76
2021/01/13 12:58:22;;;;;;;11.43;4.63;;;4.80;99.90;;;;;;4912979;29;20694;-76
2021/01/13 13:00:55;;;;;;;8.18;4.53;;;4.70;99.90;;;;;;4913454;29;20202;-76
2021/01/13 13:03:28;;;;;;;12.05;5.32;;;4.70;99.90;;;;;;4907274;29;20219;-76
2021/01/13 13:05:55;;;;;;;8.27;4.85;;;4.70;99.90;;;;;;4909527;29;20206;-76
2021/01/13 13:08:27;;;;;;;11.77;6.43;;;4.70;99.90;;;;;;4911542;29;20202;-77
2021/01/13 13:11:00;;;;;;;14.75;4.63;;;4.70;99.90;;;;;;4912812;29;20309;-76
2021/01/13 13:13:32;;;;;;;12.98;5.28;;;4.60;99.90;;;;;;4912484;29;20318;-76
2021/01/13 13:16:09;;;;;;;9.23;5.50;;;4.60;99.90;;;;;;4907922;29;20222;-76
2021/01/13 13:18:43;;;;;;;9.23;4.88;;;4.60;99.90;;;;;;4895699;29;20202;-77
2021/01/13 13:21:16;;;;;;;9.63;4.43;;;4.60;99.90;;;;;;4913819;29;20195;-76
2021/01/13 13:23:50;;;;;;;9.50;4.63;;;4.60;99.90;;;;;;4911860;29;20238;-76
2021/01/13 13:26:23;;;;;;;9.65;4.68;;;4.50;99.90;;;;;;4890369;29;20287;-76
2021/01/13 13:28:55;;;;;;;13.52;5.35;;;4.50;99.90;;;;;;4911784;29;20204;-77
2021/01/13 13:31:28;;;;;;;13.07;4.90;;;4.60;99.90;;;;;;4911260;29;20756;-77
2021/01/13 13:34:01;;;;;;;6.80;4.20;;;4.50;99.90;;;;;;4911780;29;20298;-76